Time;durP1;ratioP1;P1;durP2;ratioP2;P2;SDS_P1;SDS_P2;PMS_P1;PMS_P2;Temp;Humidity;BMP_temperature;BMP_pressure;BME280_temperature;BME280_humidity;BME280_pressure;Samples;Min_cycle;Max_cycle;Signal;HPM_P1;HPM_P2
2022/04/15 00:02:01;;;;;;;15.98;8.33;;;;;;;5.07;54.82;98105.93;1636363;87;20987;-76
2022/04/15 00:04:30;;;;;;;14.65;8.00;;;;;;;4.99;55.16;98101.18;1636379;88;21070;-77
2022/04/15 00:06:59;;;;;;;14.68;7.85;;;;;;;4.90;55.33;98106.02;1636658;88;21424;-76
2022/04/15 00:09:25;;;;;;;14.45;7.83;;;;;;;4.80;55.44;98101.27;1605289;89;21636;-77
2022/04/15 00:11:53;;;;;;;19.85;7.95;;;;;;;4.71;55.94;98110.06;1609591;89;21047;-77
2022/04/15 00:14:20;;;;;;;18.15;8.15;;;;;;;4.66;56.21;98105.70;1608816;89;21075;-77
2022/04/15 00:16:48;;;;;;;19.00;8.40;;;;;;;4.56;56.01;98108.36;1598346;90;21059;-76
2022/04/15 00:19:15;;;;;;;14.03;8.00;;;;;;;4.49;56.30;98103.56;1598626;89;21099;-76
2022/04/15 00:21:41;;;;;;;13.88;7.62;;;;;;;4.47;56.71;98107.95;1598567;90;21106;-76
2022/04/15 00:24:08;;;;;;;15.15;7.60;;;;;;;4.44;56.72;98105.80;1601051;89;21033;-77
2022/04/15 00:26:36;;;;;;;15.90;8.08;;;;;;;4.39;56.55;98107.56;1622423;88;21032;-76
2022/04/15 00:29:06;;;;;;;15.95;8.20;;;;;;;4.33;56.65;98105.81;1624146;88;21457;-77
2022/04/15 00:31:34;;;;;;;17.73;8.23;;;;;;;4.29;56.72;98106.69;1624823;88;21041;-77
2022/04/15 00:34:02;;;;;;;13.00;6.87;;;;;;;4.25;57.20;98108.45;1625349;88;21123;-76
2022/04/15 00:36:29;;;;;;;13.78;7.55;;;;;;;4.22;56.95;98102.78;1623914;88;21052;-76
2022/04/15 00:38:56;;;;;;;10.95;6.45;;;;;;;4.18;57.70;98110.22;1624624;87;21089;-76
2022/04/15 00:41:23;;;;;;;12.13;7.37;;;;;;;4.20;57.42;98103.66;1623923;88;21039;-76
2022/04/15 00:43:55;;;;;;;12.33;7.33;;;;;;;4.14;57.54;98099.29;1625056;88;21069;-77
2022/04/15 00:46:22;;;;;;;13.70;7.05;;;;;;;4.08;57.63;98111.11;1625315;88;21075;-77
2022/04/15 00:48:49;;;;;;;14.20;7.75;;;;;;;4.04;57.67;98103.70;1622102;88;21131;-77
2022/04/15 00:51:16;;;;;;;11.70;6.87;;;;;;;3.98;57.99;98101.52;1625270;87;22277;-77
2022/04/15 00:53:45;;;;;;;16.25;8.00;;;;;;;3.96;58.03;98099.74;1624730;88;20997;-77
2022/04/15 00:56:14;;;;;;;15.93;7.05;;;;;;;3.93;58.21;98097.14;1623813;88;21477;-77
2022/04/15 00:58:41;;;;;;;16.73;7.60;;;;;;;3.91;58.38;98100.64;1623286;88;21108;-77
2022/04/15 01:01:08;;;;;;;16.07;7.30;;;;;;;3.85;58.17;98096.27;1623592;88;21069;-77
2022/04/15 01:03:37;;;;;;;12.85;6.85;;;;;;;3.80;58.34;98100.64;1623378;88;21140;-77
2022/04/15 01:06:06;;;;;;;15.05;7.30;;;;;;;3.72;58.53;98100.65;1624259;87;21084;-76
2022/04/15 01:08:38;;;;;;;11.88;7.20;;;;;;;3.67;58.63;98097.16;1625543;87;21045;-76
2022/04/15 01:11:08;;;;;;;14.68;7.15;;;;;;;3.63;58.85;98097.60;1627473;87;21311;-77
2022/04/15 01:13:36;;;;;;;15.13;7.53;;;;;;;3.54;58.97;98091.05;1617253;87;21033;-77
2022/04/15 01:16:03;;;;;;;11.75;6.78;;;;;;;3.53;59.28;98090.16;1625620;87;21063;-78
2022/04/15 01:18:30;;;;;;;14.07;7.12;;;;;;;3.51;59.37;98098.47;1625937;87;21079;-77
2022/04/15 01:20:57;;;;;;;14.45;7.30;;;;;;;3.45;60.04;98089.73;1625784;87;21061;-77
2022/04/15 01:23:23;;;;;;;12.98;6.55;;;;;;;3.45;60.80;98091.03;1625763;87;22139;-77
2022/04/15 01:25:50;;;;;;;13.65;6.90;;;;;;;3.47;60.05;98089.28;1633431;87;21021;-77
2022/04/15 01:28:19;;;;;;;11.57;6.97;;;;;;;3.46;59.87;98083.61;1631496;87;21033;-77
2022/04/15 01:30:46;;;;;;;15.23;6.72;;;;;;;3.43;59.80;98091.03;1613852;89;21073;-77
2022/04/15 01:33:13;;;;;;;14.47;6.58;;;;;;;3.40;59.99;98085.35;1614720;89;21021;-77
2022/04/15 01:35:40;;;;;;;11.73;6.85;;;;;;;3.43;60.10;98083.17;1613661;89;21131;-77
2022/04/15 01:38:10;;;;;;;12.25;6.53;;;;;;;3.41;59.92;98085.78;1614060;89;21028;-77
2022/04/15 01:40:36;;;;;;;14.50;7.45;;;;;;;3.38;60.04;98085.80;1614472;89;21064;-77
2022/04/15 01:43:03;;;;;;;12.20;6.60;;;;;;;3.33;59.98;98083.61;1608360;89;21051;-77
2022/04/15 01:45:30;;;;;;;10.68;6.62;;;;;;;3.29;59.98;98082.72;1626708;88;21559;-77
2022/04/15 01:47:56;;;;;;;14.15;6.97;;;;;;;3.23;60.11;98081.41;1600339;89;21067;-77
2022/04/15 01:50:23;;;;;;;12.53;6.22;;;;;;;3.19;60.22;98080.95;1626188;88;21101;-77
2022/04/15 01:52:50;;;;;;;13.68;6.75;;;;;;;3.14;60.22;98086.20;1613993;89;21056;-77
2022/04/15 01:55:17;;;;;;;18.02;7.40;;;;;;;3.11;60.33;98083.56;1613818;89;20997;-77
2022/04/15 01:57:45;;;;;;;11.43;6.78;;;;;;;3.09;60.92;98080.50;1613887;89;21509;-77
2022/04/15 02:00:13;;;;;;;11.93;6.45;;;;;;;3.09;60.73;98080.50;1614282;87;21052;-77
2022/04/15 02:02:40;;;;;;;12.65;7.28;;;;;;;3.04;60.66;98084.44;1601236;89;21023;-77
2022/04/15 02:05:08;;;;;;;16.02;7.08;;;;;;;3.03;60.87;98082.67;1627142;88;21062;-77
2022/04/15 02:07:34;;;;;;;13.00;7.22;;;;;;;2.98;61.14;98087.02;1600356;89;20996;-77
2022/04/15 02:10:02;;;;;;;14.15;6.97;;;;;;;2.92;61.02;98082.66;1627248;88;21070;-77
2022/04/15 02:12:29;;;;;;;11.97;6.40;;;;;;;2.88;61.12;98077.86;1601311;89;21087;-77
2022/04/15 02:14:55;;;;;;;14.78;6.70;;;;;;;2.87;61.15;98078.70;1614275;89;21088;-77
2022/04/15 02:17:22;;;;;;;14.15;6.62;;;;;;;2.83;61.25;98071.71;1614037;89;21410;-77
2022/04/15 02:19:50;;;;;;;14.25;7.20;;;;;;;2.80;61.40;98076.07;1614223;89;21060;-77
2022/04/15 02:22:17;;;;;;;12.73;6.70;;;;;;;2.75;61.47;98070.84;1614290;89;21044;-77
2022/04/15 02:24:44;;;;;;;14.58;7.30;;;;;;;2.71;61.58;98074.31;1613068;89;21040;-77
2022/04/15 02:27:10;;;;;;;15.78;7.03;;;;;;;2.67;61.76;98075.16;1626912;88;21062;-76
2022/04/15 02:29:37;;;;;;;13.43;6.65;;;;;;;2.64;61.76;98079.53;1614238;89;21065;-77
2022/04/15 02:32:05;;;;;;;11.75;7.17;;;;;;;2.62;61.75;98077.32;1613737;89;21029;-76
2022/04/15 02:34:32;;;;;;;12.75;6.92;;;;;;;2.61;61.92;98070.77;1613965;89;21529;-76
2022/04/15 02:36:58;;;;;;;13.75;6.70;;;;;;;2.58;62.13;98067.71;1614097;89;21063;-76
2022/04/15 02:39:25;;;;;;;13.58;7.40;;;;;;;2.55;62.13;98070.75;1614125;89;21004;-76
2022/04/15 02:41:52;;;;;;;15.23;7.22;;;;;;;2.55;62.21;98072.06;1614055;89;21528;-76
2022/04/15 02:44:19;;;;;;;14.20;6.97;;;;;;;2.50;62.19;98070.30;1605737;89;21453;-76
2022/04/15 02:46:46;;;;;;;11.97;6.72;;;;;;;2.48;62.54;98068.55;1626874;88;21066;-77
2022/04/15 02:49:15;;;;;;;13.60;7.40;;;;;;;2.44;62.42;98061.55;1588765;90;21131;-77
2022/04/15 02:51:42;;;;;;;15.72;7.42;;;;;;;2.40;62.74;98056.74;1622224;88;21118;-77
2022/04/15 02:54:08;;;;;;;13.48;7.03;;;;;;;2.40;62.74;98065.90;1614131;89;21008;-78
2022/04/15 02:56:35;;;;;;;16.37;7.12;;;;;;;2.41;62.69;98064.17;1614499;89;21104;-77
2022/04/15 02:59:02;;;;;;;13.90;6.92;;;;;;;2.35;62.95;98059.77;1614064;89;21213;-78
2022/04/15 03:01:29;;;;;;;14.93;7.42;;;;;;;2.29;63.18;98060.64;1612753;89;21111;-78
2022/04/15 03:03:55;;;;;;;13.60;7.70;;;;;;;2.29;62.99;98056.72;1626608;88;21027;-78
2022/04/15 03:06:22;;;;;;;15.98;8.03;;;;;;;2.27;63.15;98062.36;1627234;88;20999;-78
2022/04/15 03:08:49;;;;;;;14.65;7.65;;;;;;;2.27;63.98;98061.47;1600355;89;21093;-78
2022/04/15 03:11:15;;;;;;;12.03;7.12;;;;;;;2.29;63.96;98062.37;1623118;88;21046;-78
2022/04/15 03:13:42;;;;;;;20.27;7.47;;;;;;;2.29;63.37;98062.37;1634584;88;21089;-78
2022/04/15 03:16:08;;;;;;;15.60;7.67;;;;;;;2.26;63.47;98055.80;1575338;90;21050;-78
2022/04/15 03:18:35;;;;;;;14.13;7.15;;;;;;;2.21;63.29;98059.27;1597312;90;21080;-78
2022/04/15 03:21:01;;;;;;;18.48;8.18;;;;;;;2.18;63.51;98057.08;1609598;89;21073;-78
2022/04/15 03:23:29;;;;;;;14.40;8.18;;;;;;;2.16;63.55;98054.45;1574895;91;21067;-78
2022/04/15 03:25:55;;;;;;;21.52;11.78;;;;;;;2.16;63.79;98054.91;1604222;88;21065;-77
2022/04/15 03:28:22;;;;;;;18.85;10.32;;;;;;;2.11;65.32;98060.98;1622919;88;21551;-77
2022/04/15 03:30:49;;;;;;;19.90;10.43;;;;;;;2.09;64.81;98060.52;1602721;88;20985;-77
2022/04/15 03:33:15;;;;;;;18.27;9.55;;;;;;;2.07;64.75;98050.05;1605003;89;21004;-77
2022/04/15 03:35:42;;;;;;;14.75;9.63;;;;;;;2.06;64.48;98059.19;1609597;88;21054;-77
2022/04/15 03:38:09;;;;;;;18.70;10.20;;;;;;;2.06;64.71;98052.23;1575465;90;21110;-77
2022/04/15 03:40:35;;;;;;;20.02;10.20;;;;;;;2.04;64.72;98056.56;1597404;90;21034;-77
2022/04/15 03:43:04;;;;;;;20.90;10.95;;;;;;;2.03;64.87;98056.13;1597427;90;21058;-78
2022/04/15 03:45:30;;;;;;;18.45;8.35;;;;;;;2.02;64.91;98053.50;1616114;88;20998;-77
2022/04/15 03:47:57;;;;;;;13.10;9.20;;;;;;;2.00;64.78;98050.91;1636253;88;21077;-78
2022/04/15 03:50:25;;;;;;;14.70;8.43;;;;;;;1.98;64.59;98057.42;1600561;89;21023;-77
2022/04/15 03:52:51;;;;;;;16.02;9.05;;;;;;;1.95;64.66;98056.08;1615343;88;21101;-76
2022/04/15 03:55:24;;;;;;;16.55;8.93;;;;;;;1.95;64.70;98052.16;1604518;89;21030;-77
2022/04/15 03:57:51;;;;;;;15.78;8.78;;;;;;;1.96;64.85;98053.05;1575462;90;21372;-77
2022/04/15 04:00:22;;;;;;;18.07;9.60;;;;;;;1.94;65.12;98059.98;1597238;90;21073;-78
2022/04/15 04:02:52;;;;;;;23.32;9.55;;;;;;;1.95;64.85;98056.08;1616742;88;21073;-78
2022/04/15 04:05:23;;;;;;;17.65;9.70;;;;;;;1.94;64.99;98058.69;1600561;90;21019;-78
2022/04/15 04:07:50;;;;;;;14.70;9.25;;;;;;;1.92;66.58;98060.00;1622325;88;22174;-77
2022/04/15 04:10:17;;;;;;;18.92;9.50;;;;;;;1.91;66.06;98059.54;1627385;88;21058;-78
2022/04/15 04:12:45;;;;;;;15.30;9.18;;;;;;;1.95;65.78;98054.78;1612324;87;21225;-78
2022/04/15 04:15:13;;;;;;;23.20;10.35;;;;;;;1.99;65.62;98062.20;1626444;87;21498;-78
2022/04/15 04:17:41;;;;;;;18.65;9.78;;;;;;;2.06;65.69;98057.88;1626592;87;21463;-78
2022/04/15 04:20:10;;;;;;;15.45;8.63;;;;;;;2.06;65.65;98050.92;1626709;87;21097;-77
2022/04/15 04:22:38;;;;;;;13.15;8.60;;;;;;;2.07;65.64;98060.52;1626278;87;21048;-77
2022/04/15 04:25:10;;;;;;;19.82;10.68;;;;;;;2.13;65.60;98058.80;1625460;87;21347;-77
2022/04/15 04:27:39;;;;;;;22.13;10.13;;;;;;;2.14;65.69;98053.58;1625137;87;21072;-79
2022/04/15 04:30:09;;;;;;;19.62;9.53;;;;;;;2.18;65.60;98054.05;1625984;87;21111;-76
2022/04/15 04:32:36;;;;;;;17.17;9.05;;;;;;;2.21;65.54;98047.50;1625724;87;21017;-76
2022/04/15 04:35:04;;;;;;;16.80;8.88;;;;;;;2.23;65.53;98057.97;1625244;87;21048;-78
2022/04/15 04:37:31;;;;;;;15.18;8.48;;;;;;;2.27;65.67;98058.85;1625731;87;21052;-76
2022/04/15 04:39:59;;;;;;;13.28;8.10;;;;;;;2.32;65.37;98061.09;1624463;87;21867;-76
2022/04/15 04:42:26;;;;;;;21.62;8.03;;;;;;;2.35;65.28;98051.51;1626321;87;21053;-76
2022/04/15 04:44:55;;;;;;;14.10;8.70;;;;;;;2.38;65.45;98054.56;1625741;87;21041;-75
2022/04/15 04:47:22;;;;;;;16.23;8.68;;;;;;;2.42;65.21;98058.06;1626539;87;21045;-76
2022/04/15 04:49:49;;;;;;;16.80;8.45;;;;;;;2.50;65.11;98057.22;1626056;87;21032;-76
2022/04/15 04:52:16;;;;;;;16.17;8.60;;;;;;;2.68;65.15;98059.47;1627336;87;21422;-77
2022/04/15 04:54:43;;;;;;;18.05;8.23;;;;;;;2.88;64.90;98063.89;1626492;87;21071;-78
2022/04/15 04:57:09;;;;;;;17.02;9.03;;;;;;;2.94;64.74;98057.34;1626787;87;21113;-78
2022/04/15 04:59:37;;;;;;;17.60;8.18;;;;;;;2.96;64.71;98053.01;1626150;87;21087;-78
2022/04/15 05:02:04;;;;;;;16.77;9.35;;;;;;;2.94;64.71;98059.97;1625114;87;21139;-78
2022/04/15 05:04:30;;;;;;;21.70;9.88;;;;;;;2.96;64.63;98058.24;1625381;87;21032;-78
2022/04/15 05:06:56;;;;;;;19.82;9.95;;;;;;;2.98;64.43;98059.53;1626730;87;21093;-78
2022/04/15 05:09:23;;;;;;;15.20;8.83;;;;;;;3.03;64.78;98059.10;1635523;86;21047;-79
2022/04/15 05:11:51;;;;;;;21.27;9.70;;;;;;;3.09;64.57;98056.52;1645840;86;21020;-78
2022/04/15 05:14:18;;;;;;;17.65;9.63;;;;;;;3.18;64.65;98054.34;1655285;87;21483;-78
2022/04/15 05:16:45;;;;;;;18.35;9.28;;;;;;;3.24;64.48;98060.88;1597107;90;21081;-77
2022/04/15 05:19:13;;;;;;;15.08;8.75;;;;;;;3.28;64.89;98057.40;1656205;87;21451;-77
2022/04/15 05:21:40;;;;;;;20.25;9.68;;;;;;;3.34;64.58;98056.54;1635676;88;21045;-77
2022/04/15 05:24:09;;;;;;;19.73;10.32;;;;;;;3.40;64.41;98053.91;1655750;86;21026;-77
2022/04/15 05:26:38;;;;;;;19.75;10.05;;;;;;;3.47;64.12;98054.80;1656030;87;20987;-77
2022/04/15 05:29:05;;;;;;;17.85;10.28;;;;;;;3.56;64.29;98052.59;1655627;86;21075;-77
2022/04/15 05:31:32;;;;;;;20.65;10.08;;;;;;;3.65;63.92;98056.98;1655373;87;21071;-77
2022/04/15 05:33:58;;;;;;;17.23;10.13;;;;;;;3.72;63.85;98052.58;1655357;87;21383;-77
2022/04/15 05:36:25;;;;;;;21.77;10.13;;;;;;;3.80;63.80;98050.41;1652692;87;21025;-77
2022/04/15 05:38:52;;;;;;;17.30;9.15;;;;;;;3.87;63.64;98039.48;1652461;87;21530;-77
2022/04/15 05:41:18;;;;;;;16.35;8.38;;;;;;;3.93;63.69;98039.45;1652588;87;21530;-78
2022/04/15 05:43:46;;;;;;;19.55;8.65;;;;;;;4.02;63.50;98037.23;1653622;87;21026;-78
2022/04/15 05:46:15;;;;;;;15.18;8.65;;;;;;;4.12;63.64;98038.11;1655573;86;21058;-77
2022/04/15 05:48:41;;;;;;;18.62;8.88;;;;;;;4.21;63.62;98040.70;1622372;88;21452;-77
2022/04/15 05:51:08;;;;;;;20.37;8.80;;;;;;;4.30;63.63;98041.53;1620801;88;21022;-78
2022/04/15 05:53:34;;;;;;;18.05;9.25;;;;;;;4.39;63.50;98038.88;1623982;88;21032;-77
2022/04/15 05:56:01;;;;;;;15.68;8.58;;;;;;;4.47;63.34;98048.02;1655051;87;21451;-77
2022/04/15 05:58:28;;;;;;;25.20;9.38;;;;;;;4.58;63.12;98035.75;1633023;88;21033;-77
2022/04/15 06:00:56;;;;;;;18.82;10.13;;;;;;;4.71;63.05;98038.30;1633519;87;21059;-77
2022/04/15 06:03:22;;;;;;;16.67;8.38;;;;;;;4.80;62.84;98032.11;1633990;87;21038;-77
2022/04/15 06:05:50;;;;;;;20.30;9.30;;;;;;;4.90;62.63;98039.05;1654143;87;21017;-77
2022/04/15 06:08:17;;;;;;;18.37;9.10;;;;;;;5.04;62.56;98035.05;1648551;86;21249;-77
2022/04/15 06:10:44;;;;;;;72.45;11.55;;;;;;;5.17;62.29;98028.38;1632128;87;21565;-77
2022/04/15 06:13:14;;;;;;;27.58;9.78;;;;;;;5.27;62.08;98029.61;1629811;87;21048;-77
2022/04/15 06:15:41;;;;;;;20.15;9.10;;;;;;;5.37;61.90;98021.66;1630154;88;21029;-77
2022/04/15 06:18:08;;;;;;;16.10;9.40;;;;;;;5.49;61.77;98031.20;1628319;88;21118;-77
2022/04/15 06:20:35;;;;;;;18.65;9.70;;;;;;;5.61;61.60;98031.55;1603003;89;21471;-77
2022/04/15 06:23:02;;;;;;;18.62;9.80;;;;;;;5.71;61.40;98022.68;1614238;89;21082;-77
2022/04/15 06:25:28;;;;;;;19.15;9.38;;;;;;;5.85;61.18;98020.37;1614109;89;21515;-76
2022/04/15 06:27:55;;;;;;;15.83;8.63;;;;;;;5.97;60.76;98018.91;1614064;89;21065;-77
2022/04/15 06:30:22;;;;;;;16.00;8.38;;;;;;;6.11;60.62;98016.18;1605541;88;21062;-76
2022/04/15 06:32:49;;;;;;;20.32;9.28;;;;;;;6.23;60.61;98011.19;1610211;88;21038;-76
2022/04/15 06:35:15;;;;;;;15.70;8.00;;;;;;;6.34;60.42;98017.66;1613895;89;21129;-77
2022/04/15 06:37:42;;;;;;;16.42;9.48;;;;;;;6.46;60.15;98008.30;1610921;89;21082;-77
2022/04/15 06:40:11;;;;;;;13.90;7.75;;;;;;;6.59;59.92;98005.48;1627025;88;21079;-78
2022/04/15 06:42:38;;;;;;;13.03;8.25;;;;;;;6.70;59.74;98007.98;1603381;88;21042;-78
2022/04/15 06:45:06;;;;;;;13.20;7.70;;;;;;;6.82;59.42;98000.36;1613693;89;21029;-77
2022/04/15 06:47:33;;;;;;;14.40;7.17;;;;;;;6.95;59.17;98002.37;1613899;89;21030;-76
2022/04/15 06:50:00;;;;;;;15.85;7.03;;;;;;;7.09;58.74;98001.71;1614332;89;21016;-77
2022/04/15 06:52:27;;;;;;;11.30;6.78;;;;;;;7.23;58.37;98000.64;1614331;89;21076;-77
2022/04/15 06:54:53;;;;;;;12.82;7.33;;;;;;;7.36;58.09;97999.52;1618018;87;21077;-77
2022/04/15 06:57:20;;;;;;;15.45;8.10;;;;;;;7.50;57.85;98000.62;1626897;86;21013;-77
2022/04/15 06:59:46;;;;;;;28.27;15.28;;;;;;;7.63;57.41;98000.39;1626216;87;21132;-77
2022/04/15 07:02:13;;;;;;;28.60;15.70;;;;;;;7.78;57.33;98003.22;1627879;87;21012;-77
2022/04/15 07:04:40;;;;;;;16.62;10.28;;;;;;;7.93;57.04;98009.97;1627133;87;21012;-76
2022/04/15 07:07:07;;;;;;;19.82;10.75;;;;;;;8.06;56.64;97998.76;1626489;87;21623;-77
2022/04/15 07:09:34;;;;;;;22.77;11.22;;;;;;;8.22;56.45;97993.17;1630403;86;21042;-76
2022/04/15 07:12:01;;;;;;;22.95;12.45;;;;;;;8.35;56.08;98007.84;1668058;85;21626;-76
2022/04/15 07:14:29;;;;;;;21.50;12.95;;;;;;;8.51;55.17;97995.66;1666469;85;21080;-77
2022/04/15 07:16:56;;;;;;;25.35;14.70;;;;;;;8.65;54.90;97990.10;1667007;85;21507;-77
2022/04/15 07:19:23;;;;;;;25.00;14.65;;;;;;;8.80;54.39;97990.23;1667905;85;21463;-77
2022/04/15 07:21:50;;;;;;;25.88;15.15;;;;;;;8.94;54.50;97989.91;1669190;85;21098;-76
2022/04/15 07:24:16;;;;;;;31.15;14.33;;;;;;;9.06;53.01;97986.11;1669682;85;21484;-77
2022/04/15 07:26:43;;;;;;;19.27;12.98;;;;;;;9.16;53.40;97975.72;1668596;85;21014;-77
2022/04/15 07:29:11;;;;;;;20.55;12.13;;;;;;;9.30;52.33;97967.44;1668244;85;21055;-79
2022/04/15 07:31:39;;;;;;;19.85;12.78;;;;;;;9.46;52.75;97971.02;1666407;85;21083;-79
2022/04/15 07:34:07;;;;;;;21.40;13.08;;;;;;;9.57;52.49;97967.66;1666817;85;21014;-79
2022/04/15 07:39:06;;;;;;;21.65;12.47;;;;;;;9.82;52.65;97968.78;1668749;85;21015;-78
2022/04/15 07:41:36;;;;;;;24.12;13.43;;;;;;;9.95;52.42;97974.60;1668543;85;21460;-78
2022/04/15 07:44:08;;;;;;;22.73;12.05;;;;;;;10.06;50.97;97969.91;1669208;85;21050;-78
2022/04/15 07:46:37;;;;;;;24.82;12.73;;;;;;;10.22;50.91;97961.04;1668543;85;21456;-77
2022/04/15 07:49:04;;;;;;;24.55;12.63;;;;;;;10.37;50.19;97958.86;1667638;85;21012;-78
2022/04/15 07:51:32;;;;;;;27.22;13.98;;;;;;;10.58;48.21;97953.42;1668919;85;21023;-78
2022/04/15 07:53:59;;;;;;;22.80;13.68;;;;;;;10.75;48.91;97958.20;1668941;85;21034;-77
2022/04/15 07:56:26;;;;;;;57.08;31.68;;;;;;;10.93;49.36;97959.88;1668756;85;21023;-77
2022/04/15 07:58:53;;;;;;;168.95;29.72;;;;;;;11.08;49.57;97947.45;1666161;85;21089;-77
2022/04/15 08:01:20;;;;;;;168.17;26.42;;;;;;;11.20;49.24;97953.27;1669502;85;21440;-77
2022/04/15 08:03:48;;;;;;;81.32;18.82;;;;;;;11.33;49.65;97951.06;1669751;85;20986;-78
2022/04/15 08:06:16;;;;;;;137.32;24.37;;;;;;;11.42;48.14;97947.27;1668037;85;21590;-76
2022/04/15 08:08:43;;;;;;;70.90;19.48;;;;;;;11.52;48.84;97946.47;1663637;85;21059;-77
2022/04/15 08:11:09;;;;;;;49.95;17.50;;;;;;;11.60;48.75;97949.30;1642014;87;21087;-76
2022/04/15 08:13:36;;;;;;;82.25;18.35;;;;;;;11.71;48.39;97940.09;1614240;87;22256;-76
2022/04/15 08:16:04;;;;;;;39.75;14.50;;;;;;;11.84;48.26;97940.03;1600455;90;21019;-75
2022/04/15 08:18:31;;;;;;;319.62;41.33;;;;;;;11.94;47.83;97940.59;1600360;90;21067;-76
2022/04/15 08:20:57;;;;;;;460.10;53.02;;;;;;;12.05;47.81;97936.70;1616835;88;21085;-77
2022/04/15 08:23:24;;;;;;;86.12;18.92;;;;;;;12.24;47.64;97931.11;1625375;88;21078;-76
2022/04/15 08:25:51;;;;;;;173.40;27.45;;;;;;;12.39;47.42;97927.47;1633666;88;21014;-76
2022/04/15 08:28:18;;;;;;;86.57;17.48;;;;;;;12.50;47.55;97922.59;1637619;87;21483;-75
2022/04/15 08:30:44;;;;;;;322.42;39.75;;;;;;;12.61;45.66;97914.67;1637592;88;21007;-75
2022/04/15 08:33:11;;;;;;;33.85;14.05;;;;;;;12.74;46.92;97909.76;1634168;87;21430;-75
2022/04/15 08:35:41;;;;;;;68.12;17.00;;;;;;;12.85;46.79;97912.84;1637776;88;21036;-75
2022/04/15 08:38:08;;;;;;;39.48;14.07;;;;;;;12.96;46.36;97904.89;1637449;88;21485;-75
2022/04/15 08:40:37;;;;;;;59.38;17.77;;;;;;;13.07;46.10;97902.20;1633069;88;21050;-75
2022/04/15 08:43:07;;;;;;;29.23;12.03;;;;;;;13.19;46.08;97907.92;1625350;88;21089;-74
2022/04/15 08:45:37;;;;;;;27.45;13.90;;;;;;;13.30;45.65;97899.05;1625540;88;21022;-75
2022/04/15 08:48:06;;;;;;;40.12;13.30;;;;;;;13.41;45.17;97895.06;1625480;88;21054;-76
2022/04/15 08:50:33;;;;;;;39.20;13.88;;;;;;;13.50;45.30;97893.38;1629533;88;20996;-76
2022/04/15 08:53:04;;;;;;;28.73;12.95;;;;;;;13.62;44.87;97892.42;1637623;86;21460;-75
2022/04/15 08:55:31;;;;;;;25.75;12.93;;;;;;;13.83;45.20;97887.95;1637352;87;21055;-75
2022/04/15 08:57:58;;;;;;;33.05;13.55;;;;;;;14.07;44.08;97893.12;1637352;88;21071;-75
2022/04/15 09:00:25;;;;;;;19.52;12.63;;;;;;;14.30;44.63;97888.51;1636938;88;21484;-76
2022/04/15 09:02:54;;;;;;;23.92;12.33;;;;;;;14.45;43.15;97882.94;1637460;88;21028;-76
2022/04/15 09:05:27;;;;;;;21.42;12.65;;;;;;;14.63;43.54;97880.73;1637366;88;21008;-76
2022/04/15 09:08:07;;;;;;;24.92;12.03;;;;;;;14.77;43.43;97875.20;1637573;88;20996;-76
2022/04/15 09:10:35;;;;;;;16.90;11.73;;;;;;;14.91;42.70;97873.22;1595815;88;21066;-76
2022/04/15 09:13:03;;;;;;;26.97;14.23;;;;;;;15.05;42.60;97865.85;1611407;88;21134;-75
2022/04/15 09:15:31;;;;;;;20.60;12.40;;;;;;;15.21;42.88;97867.75;1609680;89;21454;-75
2022/04/15 09:18:00;;;;;;;47.73;22.65;;;;;;;15.41;43.14;97871.59;1609086;88;21109;-76
2022/04/15 09:20:35;;;;;;;17.35;11.80;;;;;;;15.60;42.61;97865.79;1610543;88;21059;-76
2022/04/15 09:23:10;;;;;;;47.95;14.28;;;;;;;15.81;42.13;97855.75;1608581;89;21463;-75
2022/04/15 09:25:39;;;;;;;20.95;11.68;;;;;;;15.98;42.77;97854.03;1611678;89;21032;-75
2022/04/15 09:28:06;;;;;;;27.35;11.60;;;;;;;16.15;42.50;97855.30;1611868;88;22129;-75
2022/04/15 09:30:41;;;;;;;19.82;12.43;;;;;;;16.36;42.13;97843.89;1612282;88;21065;-75
2022/04/15 09:33:11;;;;;;;18.87;11.05;;;;;;;16.54;41.84;97841.15;1610856;88;21465;-75
2022/04/15 09:35:42;;;;;;;15.13;10.05;;;;;;;16.69;42.11;97839.39;1609114;89;21001;-75
2022/04/15 09:38:11;;;;;;;19.02;13.58;;;;;;;16.73;41.47;97834.27;1611076;86;21041;-76
2022/04/15 09:40:37;;;;;;;19.73;10.30;;;;;;;16.83;41.25;97829.72;1611062;88;21032;-76
2022/04/15 09:43:06;;;;;;;15.60;9.20;;;;;;;16.97;40.55;97828.91;1610952;89;21053;-75
2022/04/15 09:45:36;;;;;;;16.17;9.05;;;;;;;17.13;40.18;97827.09;1608903;88;21055;-76
2022/04/15 09:48:10;;;;;;;16.95;8.83;;;;;;;17.28;40.09;97821.29;1611281;89;21059;-75
2022/04/15 09:50:43;;;;;;;13.58;7.97;;;;;;;17.40;38.40;97815.67;1611986;89;22016;-76
2022/04/15 09:53:18;;;;;;;11.40;8.00;;;;;;;17.60;38.32;97811.41;1611596;89;21131;-76
2022/04/15 09:55:48;;;;;;;9.43;6.40;;;;;;;17.80;35.59;97803.45;1610733;89;21049;-76
2022/04/15 09:58:19;;;;;;;9.65;5.85;;;;;;;17.97;35.79;97805.58;1610980;88;21093;-76
2022/04/15 10:00:51;;;;;;;14.78;6.08;;;;;;;18.16;36.53;97802.61;1612383;89;21104;-82
2022/04/15 10:03:21;;;;;;;10.82;5.97;;;;;;;18.30;33.52;97797.69;1613286;89;21162;-82
2022/04/15 10:05:50;;;;;;;12.43;5.83;;;;;;;18.40;33.59;97802.84;1607781;88;21019;-80
2022/04/15 10:08:21;;;;;;;23.30;6.20;;;;;;;18.59;33.84;97803.86;1598697;89;21484;-75
2022/04/15 10:10:52;;;;;;;10.53;5.08;;;;;;;18.66;33.22;97798.08;1600499;89;21177;-75
2022/04/15 10:13:28;;;;;;;19.20;5.47;;;;;;;18.79;33.24;97795.44;1572874;90;21094;-78
2022/04/15 10:15:49;;;;;;;12.88;5.20;;;;;;;18.96;33.96;97794.30;1604068;88;21065;-76
2022/04/15 10:18:16;;;;;;;7.03;4.25;;;;;;;19.06;33.73;97787.88;1619409;88;21078;-77
2022/04/15 10:20:44;;;;;;;7.55;4.05;;;;;;;19.12;31.03;97791.01;1572382;89;21014;-78
2022/04/15 10:23:13;;;;;;;6.45;4.35;;;;;;;19.24;30.78;97784.41;1563968;90;21107;-78
2022/04/15 10:25:48;;;;;;;12.18;5.10;;;;;;;19.32;29.98;97779.38;1575103;91;21063;-80
2022/04/15 10:28:23;;;;;;;9.68;4.78;;;;;;;19.48;31.11;97777.80;1574834;89;21086;-78
2022/04/15 10:31:05;;;;;;;7.20;4.92;;;;;;;19.58;29.62;97774.00;1573702;90;21039;-78
2022/04/15 10:33:33;;;;;;;6.67;4.50;;;;;;;19.73;29.97;97769.35;1574800;90;21087;-78
2022/04/15 10:36:13;;;;;;;7.45;5.00;;;;;;;19.91;30.69;97770.37;1575011;90;21059;-79
2022/04/15 10:39:09;;;;;;;8.70;5.22;;;;;;;20.13;30.13;97761.64;1574735;90;21055;-78
2022/04/15 10:41:51;;;;;;;9.73;5.47;;;;;;;20.54;30.67;97763.60;1597603;90;21016;-79
2022/04/15 10:44:42;;;;;;;7.80;4.95;;;;;;;21.72;29.28;97758.37;1600564;88;21095;-79
2022/04/15 10:47:23;;;;;;;9.73;5.42;;;;;;;22.84;27.85;97759.30;1600760;88;21445;-80
2022/04/15 10:49:59;;;;;;;12.23;5.25;;;;;;;23.82;27.69;97748.27;1580068;88;21103;-79
2022/04/15 10:52:28;;;;;;;7.75;5.83;;;;;;;24.82;24.22;97742.12;1575985;90;21452;-79
2022/04/15 10:55:02;;;;;;;9.08;5.85;;;;;;;25.79;25.87;97738.91;1575943;91;21114;-78
2022/04/15 10:57:37;;;;;;;;;;;;;;;26.53;23.33;97736.76;1567818;91;21034;-79
2022/04/15 11:03:24;;;;;;;7.55;5.67;;;;;;;27.89;21.11;97729.85;1600976;88;21478;-79
2022/04/15 11:05:55;;;;;;;9.53;5.22;;;;;;;27.96;20.34;97735.50;1600778;88;21083;-79
2022/04/15 11:08:26;;;;;;;9.50;5.72;;;;;;;28.32;20.59;97724.45;1600859;89;21051;-79
2022/04/15 11:10:59;;;;;;;15.30;6.62;;;;;;;28.72;18.83;97721.46;1595861;89;21092;-79
2022/04/15 11:13:34;;;;;;;10.45;5.72;;;;;;;29.19;20.94;97723.73;1614720;89;21097;-79
2022/04/15 11:16:16;;;;;;;9.83;6.17;;;;;;;29.73;20.15;97715.48;1612183;89;21060;-79
2022/04/15 11:18:55;;;;;;;8.73;6.30;;;;;;;30.00;21.01;97720.14;1614721;89;21039;-79
2022/04/15 11:21:32;;;;;;;8.60;6.30;;;;;;;29.88;19.17;97711.48;1614702;89;21056;-79
2022/04/15 11:24:01;;;;;;;8.93;5.67;;;;;;;29.88;18.94;97710.11;1612478;89;21004;-79
2022/04/15 11:26:28;;;;;;;9.78;5.35;;;;;;;29.39;18.35;97716.02;1614658;89;21052;-78
2022/04/15 11:28:58;;;;;;;8.58;5.75;;;;;;;29.01;19.14;97711.11;1614764;89;21485;-79
2022/04/15 11:31:31;;;;;;;9.93;6.15;;;;;;;28.94;20.41;97707.37;1614714;89;21100;-79
2022/04/15 11:34:14;;;;;;;11.65;5.00;;;;;;;29.44;19.90;97697.77;1614702;89;21020;-79
2022/04/15 11:36:49;;;;;;;8.48;6.92;;;;;;;29.46;17.93;97691.11;1601746;89;21040;-79
2022/04/15 11:39:19;;;;;;;7.50;5.70;;;;;;;29.35;18.18;97692.31;1627337;88;21042;-80
2022/04/15 11:41:57;;;;;;;7.15;5.62;;;;;;;29.32;19.54;97684.49;1600745;89;21063;-80